UUEEBGGH

Guest
Details From UUEE - Moscou Sheremetyevo
To BGGH - Nuuk
Flight Number -
Tags Generated
Created
Modified
Stats Distance 2,489 nm / 4,611 km
Max Altitude 0 ft / 0 m
Waypoints 6
Social Downloads 1
Likes 0
Share VATSIM

Download

Looking for another format? Having issues loading an existing format? Contact us
Advertisement - Login to hide

Notes

Generated

Route

UUEE RESKA VALAK BNN QT BGGH

ID Type Via Altitude Latitude Longitude Leg Dist Tot Dist Heading (true) Name
O UUEE APT - 0 ft / 0 m 55.96979˚ 37.38673˚ - 0 nm - -
RESKA FIX - 0 ft / 0 m 60.97278˚ 27.55222˚ 430 nm 430 nm 318° / 310° -
VALAK FIX - 0 ft / 0 m 63.41861˚ 20.57417˚ 244 nm 674 nm 310° / 304° -
BNN VOR - 0 ft / 0 m 65.45705˚ 12.21434˚ 248 nm 922 nm 303° / 296° BRONNOY VOR-DME
QT NDB - 0 ft / 0 m 64.34437˚ -51.58191˚ 1556 nm 2479 nm 297° / 238° GODTHAB/NUUK NDB
O BGGH APT - 0 ft / 0 m 64.18897˚ -51.67955˚ 9 nm 2489 nm 195° / 195° Nuuk

Altitude Profile

Advertisement - Login to hide

Weather


0- 5 10 15 20 25 30 35+ Temperature / ° C

Clouds and Precipitation
Forecast for 2018-05-24 00:00 UTC. Updated 5 hours ago

Ground ~20,000 ft ~40,000 ft Winds

UUEE

Details ICAO UUEE (SVO)
Name Moscou Sheremetyevo
Region Russia
Timezone Europe/Moscow (UTC+3.0)
Stats Elevation 622 ft / 190 m (AMSL)
Location 55.972642° 37.414586°
Runways 2
Magnetic Variation 11.221° E

METAR

UUEE 240430Z 06003MPS CAVOK 16/12 Q1021 R06C/CLRD62 R06R/CLRD62 NOSIG

Decode

TAF

TAF TAF UUEE 240150Z 2403/2503 02005MPS 9999 SCT030 TX23/2412Z TN10/2502Z

Decode

Departure Runways

ID Width Length Bearing (true) Bearing (mag) Surface Threshold Offset Overrun Length
07L 197 ft / 60 m 11,613 ft / 3,540 m 74.99° 63.77° Concrete 0 ft / 0 m 240 ft / 73 m
07R 197 ft / 60 m 12,127 ft / 3,696 m 75.03° 63.81° Concrete 0 ft / 0 m 235 ft / 72 m
25L 197 ft / 60 m 12,127 ft / 3,696 m 255.08° 243.86° Concrete 0 ft / 0 m 245 ft / 75 m
25R 197 ft / 60 m 11,613 ft / 3,540 m 255.04° 243.82° Concrete 0 ft / 0 m 245 ft / 75 m

BGGH

Details ICAO BGGH (GOH)
Name Nuuk
Region Greenland
Timezone America/Godthab (UTC-2.0)
Stats Elevation 283 ft / 86 m (AMSL)
Location 64.193021° -51.676454°
Runways 1
Magnetic Variation 26.861° W

METAR

BGGH 240350Z AUTO 17002KT 9999NDV BKN037/// M01/M05 Q1005

Decode

TAF

Not found

Destination Runways

ID Width Length Bearing (true) Bearing (mag) Surface Threshold Offset Overrun Length
05 98 ft / 30 m 3,113 ft / 949 m 18.44° 45.30° Asphalt 0 ft / 0 m 0 ft / 0 m
23 98 ft / 30 m 3,113 ft / 949 m 198.44° 225.30° Asphalt 0 ft / 0 m 0 ft / 0 m

Popular Alternatives